sensor_id;sensor_type;location;lat;lon;timestamp;pressure;altitude;pressure_sealevel;temperature;humidity
81354;BME280;70810;52.038;8.524;2023-11-22T00:01:52;101364.53;;;2.52;nan
81354;BME280;70810;52.038;8.524;2023-11-22T00:04:26;101371.56;;;2.43;nan
81354;BME280;70810;52.038;8.524;2023-11-22T00:06:53;101383.06;;;2.50;nan
81354;BME280;70810;52.038;8.524;2023-11-22T00:09:21;101380.41;;;2.47;nan
81354;BME280;70810;52.038;8.524;2023-11-22T00:11:48;101390.13;;;2.48;nan
81354;BME280;70810;52.038;8.524;2023-11-22T00:14:17;101394.56;;;2.46;nan
81354;BME280;70810;52.038;8.524;2023-11-22T00:16:43;101393.66;;;2.38;nan
81354;BME280;70810;52.038;8.524;2023-11-22T00:19:11;101393.66;;;2.38;nan
81354;BME280;70810;52.038;8.524;2023-11-22T00:21:37;101394.47;;;2.31;nan
81354;BME280;70810;52.038;8.524;2023-11-22T00:24:05;101397.13;;;2.31;nan
81354;BME280;70810;52.038;8.524;2023-11-22T00:26:32;101394.47;;;2.26;nan
81354;BME280;70810;52.038;8.524;2023-11-22T00:29:03;101397.16;;;2.28;nan
81354;BME280;70810;52.038;8.524;2023-11-22T00:31:31;101388.28;;;2.19;nan
81354;BME280;70810;52.038;8.524;2023-11-22T00:33:59;101403.31;;;2.30;nan
81354;BME280;70810;52.038;8.524;2023-11-22T00:36:25;101401.50;;;2.18;nan
81354;BME280;70810;52.038;8.524;2023-11-22T00:38:52;101411.22;;;2.16;nan
81354;BME280;70810;52.038;8.524;2023-11-22T00:41:19;101413.84;;;2.11;nan
81354;BME280;70810;52.038;8.524;2023-11-22T00:43:46;101419.16;;;2.22;nan
81354;BME280;70810;52.038;8.524;2023-11-22T00:46:13;101416.53;;;2.23;nan
81354;BME280;70810;52.038;8.524;2023-11-22T00:48:41;101428.03;;;2.33;nan
81354;BME280;70810;52.038;8.524;2023-11-22T00:51:08;101428.03;;;2.35;nan
81354;BME280;70810;52.038;8.524;2023-11-22T00:53:36;101430.72;;;2.39;nan
81354;BME280;70810;52.038;8.524;2023-11-22T00:56:04;101439.53;;;2.48;nan
81354;BME280;70810;52.038;8.524;2023-11-22T00:58:31;101451.06;;;2.57;nan
81354;BME280;70810;52.038;8.524;2023-11-22T01:00:59;101444.03;;;2.70;nan
81354;BME280;70810;52.038;8.524;2023-11-22T01:03:26;101441.41;;;2.83;nan
81354;BME280;70810;52.038;8.524;2023-11-22T01:05:54;101434.31;;;2.60;nan
81354;BME280;70810;52.038;8.524;2023-11-22T01:08:21;101454.59;;;2.63;nan
81354;BME280;70810;52.038;8.524;2023-11-22T01:10:48;101448.38;;;2.53;nan
81354;BME280;70810;52.038;8.524;2023-11-22T01:13:15;101448.34;;;2.37;nan
81354;BME280;70810;52.038;8.524;2023-11-22T01:15:43;101439.47;;;2.21;nan
81354;BME280;70810;52.038;8.524;2023-11-22T01:18:10;101442.97;;;2.14;nan
81354;BME280;70810;52.038;8.524;2023-11-22T01:20:37;101442.09;;;2.12;nan
81354;BME280;70810;52.038;8.524;2023-11-22T01:23:08;101435.88;;;2.07;nan
81354;BME280;70810;52.038;8.524;2023-11-22T01:25:35;101423.44;;;1.91;nan
81354;BME280;70810;52.038;8.524;2023-11-22T01:28:01;101427.00;;;1.96;nan
81354;BME280;70810;52.038;8.524;2023-11-22T01:30:28;101432.22;;;1.86;nan
81354;BME280;70810;52.038;8.524;2023-11-22T01:32:55;101428.69;;;1.86;nan
81354;BME280;70810;52.038;8.524;2023-11-22T01:35:22;101431.28;;;1.72;nan
81354;BME280;70810;52.038;8.524;2023-11-22T01:37:49;101428.59;;;1.69;nan
81354;BME280;70810;52.038;8.524;2023-11-22T01:40:18;101427.69;;;1.65;nan
81354;BME280;70810;52.038;8.524;2023-11-22T01:42:45;101425.88;;;1.57;nan
81354;BME280;70810;52.038;8.524;2023-11-22T01:45:13;101422.34;;;1.59;nan
81354;BME280;70810;52.038;8.524;2023-11-22T01:47:39;101425.91;;;1.58;nan
81354;BME280;70810;52.038;8.524;2023-11-22T01:50:07;101424.91;;;1.45;nan
81354;BME280;70810;52.038;8.524;2023-11-22T01:52:35;101433.75;;;1.49;nan
81354;BME280;70810;52.038;8.524;2023-11-22T01:55:03;101433.72;;;1.46;nan
81354;BME280;70810;52.038;8.524;2023-11-22T01:57:33;101427.53;;;1.39;nan
81354;BME280;70810;52.038;8.524;2023-11-22T02:00:00;101435.41;;;1.33;nan
81354;BME280;70810;52.038;8.524;2023-11-22T02:02:29;101435.44;;;1.41;nan
81354;BME280;70810;52.038;8.524;2023-11-22T02:04:59;101443.41;;;1.44;nan
81354;BME280;70810;52.038;8.524;2023-11-22T02:07:27;101457.53;;;1.46;nan
81354;BME280;70810;52.038;8.524;2023-11-22T02:09:54;101455.72;;;1.39;nan
81354;BME280;70810;52.038;8.524;2023-11-22T02:12:23;101454.75;;;1.29;nan
81354;BME280;70810;52.038;8.524;2023-11-22T02:14:51;101460.03;;;1.29;nan
81354;BME280;70810;52.038;8.524;2023-11-22T02:17:18;101458.28;;;1.28;nan
81354;BME280;70810;52.038;8.524;2023-11-22T02:19:45;101461.75;;;1.22;nan
81354;BME280;70810;52.038;8.524;2023-11-22T02:22:12;101466.19;;;1.28;nan
81354;BME280;70810;52.038;8.524;2023-11-22T02:24:40;101474.06;;;1.20;nan
81354;BME280;70810;52.038;8.524;2023-11-22T02:27:07;101487.25;;;1.19;nan
81354;BME280;70810;52.038;8.524;2023-11-22T02:29:34;101481.09;;;1.18;nan
81354;BME280;70810;52.038;8.524;2023-11-22T02:32:01;101477.56;;;1.16;nan
81354;BME280;70810;52.038;8.524;2023-11-22T02:34:30;101489.81;;;1.09;nan
81354;BME280;70810;52.038;8.524;2023-11-22T02:36:57;101503.88;;;1.04;nan
81354;BME280;70810;52.038;8.524;2023-11-22T02:39:29;101500.25;;;0.96;nan
81354;BME280;70810;52.038;8.524;2023-11-22T02:42:01;101502.13;;;1.07;nan
81354;BME280;70810;52.038;8.524;2023-11-22T02:44:30;101504.00;;;1.18;nan
81354;BME280;70810;52.038;8.524;2023-11-22T02:46:57;101500.47;;;1.20;nan
81354;BME280;70810;52.038;8.524;2023-11-22T02:49:25;101499.56;;;1.15;nan
81354;BME280;70810;52.038;8.524;2023-11-22T02:51:56;101500.44;;;1.14;nan
81354;BME280;70810;52.038;8.524;2023-11-22T02:54:23;101494.25;;;1.10;nan
81354;BME280;70810;52.038;8.524;2023-11-22T02:56:49;101504.88;;;1.18;nan
81354;BME280;70810;52.038;8.524;2023-11-22T02:59:18;101514.50;;;1.11;nan
81354;BME280;70810;52.038;8.524;2023-11-22T03:01:44;101516.22;;;1.06;nan
81354;BME280;70810;52.038;8.524;2023-11-22T03:04:11;101509.19;;;1.10;nan
81354;BME280;70810;52.038;8.524;2023-11-22T03:06:39;101517.88;;;0.98;nan
81354;BME280;70810;52.038;8.524;2023-11-22T03:09:06;101523.94;;;0.89;nan
81354;BME280;70810;52.038;8.524;2023-11-22T03:11:33;101532.75;;;0.87;nan
81354;BME280;70810;52.038;8.524;2023-11-22T03:14:01;101539.75;;;0.83;nan
81354;BME280;70810;52.038;8.524;2023-11-22T03:16:30;101531.75;;;0.79;nan
81354;BME280;70810;52.038;8.524;2023-11-22T03:18:57;101538.94;;;0.89;nan
81354;BME280;70810;52.038;8.524;2023-11-22T03:21:25;101533.69;;;0.92;nan
81354;BME280;70810;52.038;8.524;2023-11-22T03:23:53;101532.00;;;0.99;nan
81354;BME280;70810;52.038;8.524;2023-11-22T03:26:20;101530.16;;;0.93;nan
81354;BME280;70810;52.038;8.524;2023-11-22T03:28:46;101515.22;;;0.97;nan
81354;BME280;70810;52.038;8.524;2023-11-22T03:31:13;101531.09;;;1.00;nan
81354;BME280;70810;52.038;8.524;2023-11-22T03:33:43;101524.94;;;0.99;nan
81354;BME280;70810;52.038;8.524;2023-11-22T03:36:10;101518.63;;;0.83;nan
81354;BME280;70810;52.038;8.524;2023-11-22T03:38:38;101531.84;;;0.88;nan
81354;BME280;70810;52.038;8.524;2023-11-22T03:41:05;101531.94;;;0.94;nan
81354;BME280;70810;52.038;8.524;2023-11-22T03:43:32;101540.53;;;0.78;nan
81354;BME280;70810;52.038;8.524;2023-11-22T03:45:59;101537.84;;;0.73;nan
81354;BME280;70810;52.038;8.524;2023-11-22T03:48:26;101544.28;;;0.95;nan
81354;BME280;70810;52.038;8.524;2023-11-22T03:50:55;101542.44;;;0.89;nan
81354;BME280;70810;52.038;8.524;2023-11-22T03:53:22;101551.31;;;0.95;nan
81354;BME280;70810;52.038;8.524;2023-11-22T03:55:49;101561.06;;;1.00;nan
81354;BME280;70810;52.038;8.524;2023-11-22T03:58:16;101560.81;;;0.79;nan
81354;BME280;70810;52.038;8.524;2023-11-22T04:00:43;101565.34;;;0.89;nan
81354;BME280;70810;52.038;8.524;2023-11-22T04:03:10;101568.69;;;0.74;nan
81354;BME280;70810;52.038;8.524;2023-11-22T04:05:37;101573.09;;;0.75;nan
81354;BME280;70810;52.038;8.524;2023-11-22T04:08:06;101582.09;;;0.91;nan
81354;BME280;70810;52.038;8.524;2023-11-22T04:10:34;101586.53;;;0.93;nan
81354;BME280;70810;52.038;8.524;2023-11-22T04:13:00;101584.56;;;0.77;nan
81354;BME280;70810;52.038;8.524;2023-11-22T04:15:27;101591.63;;;0.80;nan
81354;BME280;70810;52.038;8.524;2023-11-22T04:17:55;101596.00;;;0.78;nan
81354;BME280;70810;52.038;8.524;2023-11-22T04:20:22;101586.28;;;0.73;nan
81354;BME280;70810;52.038;8.524;2023-11-22T04:22:48;101582.81;;;0.79;nan
81354;BME280;70810;52.038;8.524;2023-11-22T04:25:18;101585.56;;;0.85;nan
81354;BME280;70810;52.038;8.524;2023-11-22T04:27:45;101589.19;;;0.93;nan
81354;BME280;70810;52.038;8.524;2023-11-22T04:30:12;101580.28;;;0.87;nan
81354;BME280;70810;52.038;8.524;2023-11-22T04:32:40;101592.44;;;0.74;nan
81354;BME280;70810;52.038;8.524;2023-11-22T04:35:08;101582.81;;;0.78;nan
81354;BME280;70810;52.038;8.524;2023-11-22T04:37:35;101599.31;;;0.60;nan
81354;BME280;70810;52.038;8.524;2023-11-22T04:40:02;101585.19;;;0.59;nan
81354;BME280;70810;52.038;8.524;2023-11-22T04:42:34;101603.06;;;0.77;nan
81354;BME280;70810;52.038;8.524;2023-11-22T04:45:01;101590.66;;;0.70;nan
81354;BME280;70810;52.038;8.524;2023-11-22T04:47:28;101598.59;;;0.73;nan
81354;BME280;70810;52.038;8.524;2023-11-22T04:49:55;101601.28;;;0.76;nan
81354;BME280;70810;52.038;8.524;2023-11-22T04:52:22;101592.44;;;0.74;nan
81354;BME280;70810;52.038;8.524;2023-11-22T04:54:49;101601.31;;;0.79;nan
81354;BME280;70810;52.038;8.524;2023-11-22T04:57:15;101609.31;;;0.84;nan
81354;BME280;70810;52.038;8.524;2023-11-22T04:59:45;101600.41;;;0.77;nan
81354;BME280;70810;52.038;8.524;2023-11-22T05:02:12;101598.59;;;0.71;nan
81354;BME280;70810;52.038;8.524;2023-11-22T05:04:39;101588.72;;;0.58;nan
81354;BME280;70810;52.038;8.524;2023-11-22T05:07:09;101604.50;;;0.53;nan
81354;BME280;70810;52.038;8.524;2023-11-22T05:09:36;101587.78;;;0.53;nan
81354;BME280;70810;52.038;8.524;2023-11-22T05:12:06;101598.34;;;0.56;nan
81354;BME280;70810;52.038;8.524;2023-11-22T05:14:33;101611.59;;;0.59;nan
81354;BME280;70810;52.038;8.524;2023-11-22T05:17:01;101614.13;;;0.50;nan
81354;BME280;70810;52.038;8.524;2023-11-22T05:19:29;101621.88;;;0.38;nan
81354;BME280;70810;52.038;8.524;2023-11-22T05:21:56;101631.34;;;0.25;nan
81354;BME280;70810;52.038;8.524;2023-11-22T05:24:23;101621.06;;;0.43;nan
81354;BME280;70810;52.038;8.524;2023-11-22T05:26:50;101640.75;;;0.65;nan
81354;BME280;70810;52.038;8.524;2023-11-22T05:29:18;101644.97;;;0.54;nan
81354;BME280;70810;52.038;8.524;2023-11-22T05:31:45;101638.63;;;0.40;nan
81354;BME280;70810;52.038;8.524;2023-11-22T05:34:13;101645.28;;;0.16;nan
81354;BME280;70810;52.038;8.524;2023-11-22T05:36:40;101658.31;;;0.07;nan
81354;BME280;70810;52.038;8.524;2023-11-22T05:39:07;101669.16;;;0.22;nan
81354;BME280;70810;52.038;8.524;2023-11-22T05:41:35;101665.34;;;0.05;nan
81354;BME280;70810;52.038;8.524;2023-11-22T05:44:02;101657.06;;;-0.15;nan
81354;BME280;70810;52.038;8.524;2023-11-22T05:46:30;101664.19;;;-0.11;nan
81354;BME280;70810;52.038;8.524;2023-11-22T05:48:57;101643.19;;;-0.05;nan
81354;BME280;70810;52.038;8.524;2023-11-22T05:51:27;101645.66;;;-0.16;nan
81354;BME280;70810;52.038;8.524;2023-11-22T05:53:54;101643.78;;;-0.23;nan
81354;BME280;70810;52.038;8.524;2023-11-22T05:56:21;101639.50;;;-0.16;nan
81354;BME280;70810;52.038;8.524;2023-11-22T05:58:49;101641.41;;;-0.08;nan
81354;BME280;70810;52.038;8.524;2023-11-22T06:01:17;101641.25;;;-0.17;nan
81354;BME280;70810;52.038;8.524;2023-11-22T06:03:44;101645.75;;;-0.10;nan
81354;BME280;70810;52.038;8.524;2023-11-22T06:06:12;101646.81;;;0.00;nan
81354;BME280;70810;52.038;8.524;2023-11-22T06:08:40;101644.94;;;-0.06;nan
81354;BME280;70810;52.038;8.524;2023-11-22T06:11:08;101644.91;;;-0.07;nan
81354;BME280;70810;52.038;8.524;2023-11-22T06:13:34;101666.88;;;-0.08;nan
81354;BME280;70810;52.038;8.524;2023-11-22T06:16:01;101672.97;;;-0.11;nan
81354;BME280;70810;52.038;8.524;2023-11-22T06:18:29;101665.78;;;-0.21;nan
81354;BME280;70810;52.038;8.524;2023-11-22T06:20:56;101627.63;;;-0.42;nan
81354;BME280;70810;52.038;8.524;2023-11-22T06:23:23;101661.34;;;-0.24;nan
81354;BME280;70810;52.038;8.524;2023-11-22T06:25:51;101671.72;;;-0.33;nan
81354;BME280;70810;52.038;8.524;2023-11-22T06:28:18;101676.47;;;-0.61;nan
81354;BME280;70810;52.038;8.524;2023-11-22T06:30:45;101669.66;;;-0.48;nan
81354;BME280;70810;52.038;8.524;2023-11-22T06:33:13;101660.66;;;-0.61;nan
81354;BME280;70810;52.038;8.524;2023-11-22T06:35:40;101663.09;;;-0.70;nan
81354;BME280;70810;52.038;8.524;2023-11-22T06:38:07;101661.28;;;-0.74;nan
81354;BME280;70810;52.038;8.524;2023-11-22T06:40:36;101656.97;;;-0.69;nan
81354;BME280;70810;52.038;8.524;2023-11-22T06:43:05;101652.66;;;-0.65;nan
81354;BME280;70810;52.038;8.524;2023-11-22T06:45:33;101648.00;;;-0.31;nan
81354;BME280;70810;52.038;8.524;2023-11-22T06:48:00;101640.78;;;-0.43;nan
81354;BME280;70810;52.038;8.524;2023-11-22T06:50:27;101643.50;;;-0.39;nan
81354;BME280;70810;52.038;8.524;2023-11-22T06:52:54;101642.59;;;-0.41;nan
81354;BME280;70810;52.038;8.524;2023-11-22T06:55:21;101654.34;;;-0.22;nan
81354;BME280;70810;52.038;8.524;2023-11-22T06:57:48;101644.75;;;-0.16;nan
81354;BME280;70810;52.038;8.524;2023-11-22T07:00:17;101615.50;;;-0.32;nan
81354;BME280;70810;52.038;8.524;2023-11-22T07:02:45;101639.41;;;-0.21;nan
81354;BME280;70810;52.038;8.524;2023-11-22T07:05:12;101634.31;;;-0.10;nan
81354;BME280;70810;52.038;8.524;2023-11-22T07:07:39;101650.41;;;0.07;nan
81354;BME280;70810;52.038;8.524;2023-11-22T07:10:07;101646.81;;;0.02;nan
81354;BME280;70810;52.038;8.524;2023-11-22T07:12:36;101646.19;;;0.18;nan
81354;BME280;70810;52.038;8.524;2023-11-22T07:15:06;101655.84;;;0.16;nan
81354;BME280;70810;52.038;8.524;2023-11-22T07:17:40;101650.00;;;0.37;nan
81354;BME280;70810;52.038;8.524;2023-11-22T07:20:07;101664.63;;;0.15;nan
81354;BME280;70810;52.038;8.524;2023-11-22T07:22:39;101667.34;;;0.20;nan
81354;BME280;70810;52.038;8.524;2023-11-22T07:25:08;101670.88;;;0.22;nan
81354;BME280;70810;52.038;8.524;2023-11-22T07:27:44;101663.97;;;0.28;nan
81354;BME280;70810;52.038;8.524;2023-11-22T07:30:12;101668.50;;;0.37;nan
81354;BME280;70810;52.038;8.524;2023-11-22T07:32:41;101657.81;;;0.29;nan
81354;BME280;70810;52.038;8.524;2023-11-22T07:35:12;101647.44;;;0.42;nan
81354;BME280;70810;52.038;8.524;2023-11-22T07:37:40;101663.38;;;0.48;nan
81354;BME280;70810;52.038;8.524;2023-11-22T07:40:08;101660.09;;;0.64;nan
81354;BME280;70810;52.038;8.524;2023-11-22T07:42:38;101659.09;;;0.54;nan
81354;BME280;70810;52.038;8.524;2023-11-22T07:45:06;101660.72;;;0.46;nan
81354;BME280;70810;52.038;8.524;2023-11-22T07:47:37;101658.25;;;0.59;nan
81354;BME280;70810;52.038;8.524;2023-11-22T07:50:09;101672.44;;;0.65;nan
81354;BME280;70810;52.038;8.524;2023-11-22T07:52:39;101676.88;;;0.69;nan
81354;BME280;70810;52.038;8.524;2023-11-22T07:55:08;101672.94;;;1.01;nan
81354;BME280;70810;52.038;8.524;2023-11-22T07:57:36;101675.13;;;1.37;nan
81354;BME280;70810;52.038;8.524;2023-11-22T08:00:06;101684.88;;;1.41;nan
81354;BME280;70810;52.038;8.524;2023-11-22T08:02:34;101691.94;;;1.44;nan
81354;BME280;70810;52.038;8.524;2023-11-22T08:08:08;101686.66;;;1.44;nan
81354;BME280;70810;52.038;8.524;2023-11-22T08:10:43;101684.13;;;1.53;nan
81354;BME280;70810;52.038;8.524;2023-11-22T08:13:10;101694.09;;;1.79;nan
81354;BME280;70810;52.038;8.524;2023-11-22T08:15:37;101687.84;;;1.72;nan
81354;BME280;70810;52.038;8.524;2023-11-22T08:18:04;101676.41;;;1.73;nan
81354;BME280;70810;52.038;8.524;2023-11-22T08:20:32;101676.34;;;1.67;nan
81354;BME280;70810;52.038;8.524;2023-11-22T08:23:01;101681.06;;;2.02;nan
81354;BME280;70810;52.038;8.524;2023-11-22T08:25:33;101693.56;;;2.18;nan
81354;BME280;70810;52.038;8.524;2023-11-22T08:28:00;101694.44;;;2.14;nan
81354;BME280;70810;52.038;8.524;2023-11-22T08:30:27;101702.34;;;2.11;nan
81354;BME280;70810;52.038;8.524;2023-11-22T08:32:58;101692.47;;;1.95;nan
81354;BME280;70810;52.038;8.524;2023-11-22T08:35:25;101698.56;;;1.86;nan
81354;BME280;70810;52.038;8.524;2023-11-22T08:37:53;101703.97;;;1.98;nan
81354;BME280;70810;52.038;8.524;2023-11-22T08:40:23;101716.25;;;1.92;nan
81354;BME280;70810;52.038;8.524;2023-11-22T08:42:52;101712.94;;;2.13;nan
81354;BME280;70810;52.038;8.524;2023-11-22T08:45:20;101718.41;;;2.31;nan
81354;BME280;70810;52.038;8.524;2023-11-22T08:47:47;101714.84;;;2.31;nan
81354;BME280;70810;52.038;8.524;2023-11-22T08:50:17;101713.09;;;2.30;nan
81354;BME280;70810;52.038;8.524;2023-11-22T08:52:45;101734.13;;;2.13;nan
81354;BME280;70810;52.038;8.524;2023-11-22T08:55:13;101745.00;;;2.45;nan
81354;BME280;70810;52.038;8.524;2023-11-22T08:57:40;101758.28;;;2.53;nan
81354;BME280;70810;52.038;8.524;2023-11-22T09:00:09;101761.09;;;2.73;nan
81354;BME280;70810;52.038;8.524;2023-11-22T09:02:43;101770.03;;;2.87;nan
81354;BME280;70810;52.038;8.524;2023-11-22T09:05:10;101782.47;;;2.96;nan
81354;BME280;70810;52.038;8.524;2023-11-22T09:07:39;101764.75;;;2.92;nan
81354;BME280;70810;52.038;8.524;2023-11-22T09:10:08;101745.16;;;2.70;nan
81354;BME280;70810;52.038;8.524;2023-11-22T09:12:41;101744.50;;;3.02;nan
81354;BME280;70810;52.038;8.524;2023-11-22T09:15:13;101741.72;;;2.77;nan
81354;BME280;70810;52.038;8.524;2023-11-22T09:17:49;101711.91;;;3.18;nan
81354;BME280;70810;52.038;8.524;2023-11-22T09:20:17;101717.06;;;2.96;nan
81354;BME280;70810;52.038;8.524;2023-11-22T09:22:47;101725.00;;;2.92;nan
81354;BME280;70810;52.038;8.524;2023-11-22T09:25:17;101726.91;;;3.16;nan
81354;BME280;70810;52.038;8.524;2023-11-22T09:27:44;101726.06;;;3.22;nan
81354;BME280;70810;52.038;8.524;2023-11-22T09:30:18;101721.66;;;3.25;nan
81354;BME280;70810;52.038;8.524;2023-11-22T09:33:05;101734.06;;;3.37;nan
81354;BME280;70810;52.038;8.524;2023-11-22T09:35:34;101731.41;;;3.32;nan
81354;BME280;70810;52.038;8.524;2023-11-22T09:38:03;101732.38;;;3.54;nan
81354;BME280;70810;52.038;8.524;2023-11-22T09:40:32;101727.97;;;3.53;nan
81354;BME280;70810;52.038;8.524;2023-11-22T09:43:01;101729.75;;;3.59;nan
81354;BME280;70810;52.038;8.524;2023-11-22T09:45:30;101717.41;;;3.73;nan
81354;BME280;70810;52.038;8.524;2023-11-22T09:47:59;101696.06;;;3.36;nan
81354;BME280;70810;52.038;8.524;2023-11-22T09:50:32;101714.75;;;3.70;nan
81354;BME280;70810;52.038;8.524;2023-11-22T09:53:02;101732.38;;;3.51;nan
81354;BME280;70810;52.038;8.524;2023-11-22T09:55:38;101729.69;;;3.44;nan
81354;BME280;70810;52.038;8.524;2023-11-22T09:58:13;101720.81;;;3.29;nan
81354;BME280;70810;52.038;8.524;2023-11-22T10:00:43;101730.56;;;3.38;nan
81354;BME280;70810;52.038;8.524;2023-11-22T10:03:14;101724.44;;;3.62;nan
81354;BME280;70810;52.038;8.524;2023-11-22T10:05:44;101728.03;;;3.73;nan
81354;BME280;70810;52.038;8.524;2023-11-22T10:08:11;101725.38;;;3.80;nan
81354;BME280;70810;52.038;8.524;2023-11-22T10:10:38;101718.31;;;3.79;nan
81354;BME280;70810;52.038;8.524;2023-11-22T10:13:17;101726.28;;;4.00;nan
81354;BME280;70810;52.038;8.524;2023-11-22T10:16:09;101720.94;;;3.82;nan
81354;BME280;70810;52.038;8.524;2023-11-22T10:18:40;101709.47;;;3.97;nan
81354;BME280;70810;52.038;8.524;2023-11-22T10:21:18;101717.47;;;4.14;nan
81354;BME280;70810;52.038;8.524;2023-11-22T10:23:47;101715.72;;;4.09;nan
81354;BME280;70810;52.038;8.524;2023-11-22T10:26:22;101706.84;;;4.01;nan
81354;BME280;70810;52.038;8.524;2023-11-22T10:28:58;101716.59;;;4.21;nan
81354;BME280;70810;52.038;8.524;2023-11-22T10:31:43;101724.56;;;4.21;nan
81354;BME280;70810;52.038;8.524;2023-11-22T10:34:14;101725.44;;;4.29;nan
81354;BME280;70810;52.038;8.524;2023-11-22T10:36:44;101721.00;;;4.17;nan
81354;BME280;70810;52.038;8.524;2023-11-22T10:39:22;101723.66;;;4.19;nan
81354;BME280;70810;52.038;8.524;2023-11-22T10:42:02;101716.59;;;4.21;nan
81354;BME280;70810;52.038;8.524;2023-11-22T10:44:34;101721.03;;;4.28;nan
81354;BME280;70810;52.038;8.524;2023-11-22T10:47:06;101721.03;;;4.25;nan
81354;BME280;70810;52.038;8.524;2023-11-22T10:49:34;101718.34;;;4.33;nan
81354;BME280;70810;52.038;8.524;2023-11-22T10:52:07;101705.97;;;4.25;nan
81354;BME280;70810;52.038;8.524;2023-11-22T10:54:36;101714.81;;;4.29;nan
81354;BME280;70810;52.038;8.524;2023-11-22T10:57:07;101710.41;;;4.37;nan
81354;BME280;70810;52.038;8.524;2023-11-22T10:59:36;101701.53;;;4.52;nan
81354;BME280;70810;52.038;8.524;2023-11-22T11:02:10;101712.16;;;4.47;nan
81354;BME280;70810;52.038;8.524;2023-11-22T11:04:51;101691.81;;;4.29;nan
81354;BME280;70810;52.038;8.524;2023-11-22T11:07:31;101666.13;;;4.39;nan
81354;BME280;70810;52.038;8.524;2023-11-22T11:10:06;101689.06;;;4.90;nan
81354;BME280;70810;52.038;8.524;2023-11-22T11:12:38;101702.38;;;4.83;nan
81354;BME280;70810;52.038;8.524;2023-11-22T11:15:06;101693.50;;;4.77;nan
81354;BME280;70810;52.038;8.524;2023-11-22T11:17:35;101680.22;;;4.86;nan
81354;BME280;70810;52.038;8.524;2023-11-22T11:20:06;101676.69;;;4.79;nan
81354;BME280;70810;52.038;8.524;2023-11-22T11:22:40;101690.91;;;4.46;nan
81354;BME280;70810;52.038;8.524;2023-11-22T11:25:15;101680.25;;;4.60;nan
81354;BME280;70810;52.038;8.524;2023-11-22T11:27:56;101664.31;;;4.67;nan
81354;BME280;70810;52.038;8.524;2023-11-22T11:30:44;101678.44;;;4.88;nan
81354;BME280;70810;52.038;8.524;2023-11-22T11:33:19;101668.72;;;4.79;nan
81354;BME280;70810;52.038;8.524;2023-11-22T11:35:50;101669.63;;;4.61;nan
81354;BME280;70810;52.038;8.524;2023-11-22T11:38:30;101660.78;;;4.55;nan
81354;BME280;70810;52.038;8.524;2023-11-22T11:41:08;101665.19;;;4.71;nan
81354;BME280;70810;52.038;8.524;2023-11-22T11:43:40;101662.56;;;4.60;nan
81354;BME280;70810;52.038;8.524;2023-11-22T11:46:09;101647.53;;;4.33;nan
81354;BME280;70810;52.038;8.524;2023-11-22T11:48:42;101648.41;;;4.35;nan
81354;BME280;70810;52.038;8.524;2023-11-22T11:51:09;101648.41;;;4.10;nan
81354;BME280;70810;52.038;8.524;2023-11-22T11:53:38;101629.84;;;4.21;nan
81354;BME280;70810;52.038;8.524;2023-11-22T11:56:07;101626.31;;;4.02;nan
81354;BME280;70810;52.038;8.524;2023-11-22T11:58:34;101604.13;;;4.34;nan
81354;BME280;70810;52.038;8.524;2023-11-22T12:01:04;101601.47;;;4.45;nan
81354;BME280;70810;52.038;8.524;2023-11-22T12:03:32;101590.00;;;4.21;nan
81354;BME280;70810;52.038;8.524;2023-11-22T12:06:02;101563.41;;;4.38;nan
81354;BME280;70810;52.038;8.524;2023-11-22T12:08:35;101543.91;;;4.47;nan
81354;BME280;70810;52.038;8.524;2023-11-22T12:11:17;101537.72;;;4.46;nan
81354;BME280;70810;52.038;8.524;2023-11-22T12:13:56;101538.66;;;4.05;nan
81354;BME280;70810;52.038;8.524;2023-11-22T12:16:59;101528.94;;;4.09;nan
81354;BME280;70810;52.038;8.524;2023-11-22T12:19:55;101537.81;;;3.89;nan
81354;BME280;70810;52.038;8.524;2023-11-22T12:23:07;101530.72;;;4.05;nan
81354;BME280;70810;52.038;8.524;2023-11-22T12:25:55;101528.00;;;4.27;nan
81354;BME280;70810;52.038;8.524;2023-11-22T12:28:48;101518.19;;;4.49;nan
81354;BME280;70810;52.038;8.524;2023-11-22T12:31:32;101516.41;;;4.59;nan
81354;BME280;70810;52.038;8.524;2023-11-22T12:34:05;101511.94;;;4.64;nan
81354;BME280;70810;52.038;8.524;2023-11-22T12:36:45;101496.88;;;4.66;nan
81354;BME280;70810;52.038;8.524;2023-11-22T12:39:21;101497.78;;;4.62;nan
81354;BME280;70810;52.038;8.524;2023-11-22T12:42:00;101499.38;;;4.95;nan
81354;BME280;70810;52.038;8.524;2023-11-22T12:44:29;101487.97;;;4.73;nan
81354;BME280;70810;52.038;8.524;2023-11-22T12:47:02;101480.19;;;4.35;nan
81354;BME280;70810;52.038;8.524;2023-11-22T12:52:46;101475.75;;;4.41;nan
81354;BME280;70810;52.038;8.524;2023-11-22T12:55:33;101478.41;;;4.41;nan
81354;BME280;70810;52.038;8.524;2023-11-22T12:57:59;101477.59;;;4.10;nan
81354;BME280;70810;52.038;8.524;2023-11-22T13:00:29;101489.97;;;4.22;nan
81354;BME280;70810;52.038;8.524;2023-11-22T13:02:56;101496.94;;;4.46;nan
81354;BME280;70810;52.038;8.524;2023-11-22T13:05:24;101505.78;;;4.59;nan
81354;BME280;70810;52.038;8.524;2023-11-22T13:07:51;101511.03;;;4.68;nan
81354;BME280;70810;52.038;8.524;2023-11-22T13:10:20;101504.81;;;4.75;nan
81354;BME280;70810;52.038;8.524;2023-11-22T13:12:56;101487.16;;;4.59;nan
81354;BME280;70810;52.038;8.524;2023-11-22T13:15:25;101500.47;;;4.57;nan
81354;BME280;70810;52.038;8.524;2023-11-22T13:17:55;101496.94;;;4.46;nan
81354;BME280;70810;52.038;8.524;2023-11-22T13:20:24;101501.41;;;4.45;nan
81354;BME280;70810;52.038;8.524;2023-11-22T13:22:59;101507.56;;;4.51;nan
81354;BME280;70810;52.038;8.524;2023-11-22T13:25:29;101508.44;;;4.57;nan
81354;BME280;70810;52.038;8.524;2023-11-22T13:27:57;101509.34;;;4.48;nan
81354;BME280;70810;52.038;8.524;2023-11-22T13:30:25;101519.13;;;4.46;nan
81354;BME280;70810;52.038;8.524;2023-11-22T13:32:54;101518.19;;;4.54;nan
81354;BME280;70810;52.038;8.524;2023-11-22T13:35:22;101520.78;;;4.64;nan
81354;BME280;70810;52.038;8.524;2023-11-22T13:37:58;101498.59;;;4.75;nan
81354;BME280;70810;52.038;8.524;2023-11-22T13:40:30;101488.97;;;4.51;nan